Dallas, Texas
Traffic Map
Current Weather Conditions
Dallas, Texas
Broken Clouds
Broken Clouds
47°
Feels Like: 45°
Wind Chill: 45° Ceiling: 8000
Heat Index: 47° Visibility: 10mi
Dew Point: 36° Wind: 5mph
Humidity: 66% Direction: 350° (N)
Pressure: 30.23in Gusts: 0mph
Raw Report DataKDAL 171553Z 35004KT 10SM BKN080 BKN190 BKN240 08/02 A3023 RMK AO2 SLP234 T00830022
Traffic Incident Summary
Active as of:
Severity:
Category:
InformationThere was an issue retrieving the traffic information for this location. Please try a different location or try again shortly.
Advertisements
Track Severe Weather on mobile